createdAt,value
2017-10-25T00:00:46.243Z,99838.66
2017-10-25T00:03:14.673Z,99832.77
2017-10-25T00:05:43.063Z,99826.34
2017-10-25T00:08:11.449Z,99829.52
2017-10-25T00:10:40.230Z,99835.77
2017-10-25T00:13:08.641Z,99834.13
2017-10-25T00:15:37.032Z,99830.16
2017-10-25T00:18:05.460Z,99838.63
2017-10-25T00:20:33.868Z,99831.80
2017-10-25T00:23:02.256Z,99827.30
2017-10-25T00:25:30.699Z,99820.20
2017-10-25T00:27:59.096Z,99813.51
2017-10-25T00:30:27.462Z,99814.33
2017-10-25T00:32:56.240Z,99814.70
2017-10-25T00:35:24.629Z,99814.98
2017-10-25T00:37:53.023Z,99808.45
2017-10-25T00:40:21.435Z,99812.79
2017-10-25T00:42:49.824Z,99810.87
2017-10-25T00:45:18.982Z,99808.28
2017-10-25T00:47:47.471Z,99811.28
2017-10-25T00:50:16.131Z,99807.05
2017-10-25T00:52:44.515Z,99820.57
2017-10-25T00:55:12.944Z,99820.70
2017-10-25T00:57:42.106Z,99822.34
2017-10-25T01:00:10.517Z,99822.07
2017-10-25T01:02:40.064Z,99825.07
2017-10-25T01:05:08.458Z,99819.20
2017-10-25T01:07:36.854Z,99818.07
2017-10-25T01:10:05.407Z,99821.62
2017-10-25T01:12:33.815Z,99819.44
2017-10-25T01:15:02.220Z,99820.67
2017-10-25T01:17:31.438Z,99812.20
2017-10-25T01:19:59.858Z,99821.21
2017-10-25T01:22:28.287Z,99814.94
2017-10-25T01:24:57.755Z,99815.20
2017-10-25T01:27:26.179Z,99825.98
2017-10-25T01:29:54.612Z,99819.84
2017-10-25T01:32:23.075Z,99812.74
2017-10-25T01:34:51.508Z,99824.48
2017-10-25T01:37:20.702Z,99817.25
2017-10-25T01:39:49.921Z,99808.65
2017-10-25T01:42:18.352Z,99807.70
2017-10-25T01:44:46.775Z,99810.84
2017-10-25T01:47:15.546Z,99808.89
2017-10-25T01:49:44.748Z,99812.44
2017-10-25T01:52:13.943Z,99813.12
2017-10-25T01:54:43.436Z,99809.70
2017-10-25T01:57:12.637Z,99805.75
2017-10-25T01:59:41.831Z,99798.10
2017-10-25T02:02:11.116Z,99791.69
2017-10-25T02:04:39.546Z,99793.19
2017-10-25T02:07:07.983Z,99793.45
2017-10-25T02:09:36.438Z,99794.42
2017-10-25T02:12:04.879Z,99790.73
2017-10-25T02:14:33.308Z,99785.55
2017-10-25T02:17:01.775Z,99782.41
2017-10-25T02:19:30.204Z,99781.28
2017-10-25T02:21:59.406Z,99771.48
2017-10-25T02:24:27.863Z,99769.98
2017-10-25T02:26:56.309Z,99771.48
2017-10-25T02:29:24.685Z,99772.58
2017-10-25T02:31:53.120Z,99764.50
2017-10-25T02:34:21.516Z,99773.53
2017-10-25T02:36:49.910Z,99766.58
2017-10-25T02:39:18.344Z,99767.63
2017-10-25T02:41:47.499Z,99773.09
2017-10-25T02:44:15.888Z,99767.22
2017-10-25T02:46:44.322Z,99773.77
2017-10-25T02:49:12.726Z,99765.45
2017-10-25T02:51:41.125Z,99765.59
2017-10-25T02:54:09.877Z,99769.41
2017-10-25T02:56:38.284Z,99770.49
2017-10-25T02:59:06.677Z,99769.95
2017-10-25T03:01:35.390Z,99768.45
2017-10-25T03:04:04.557Z,99763.53
2017-10-25T03:06:32.957Z,99753.16
2017-10-25T03:09:02.122Z,99764.31
2017-10-25T03:11:30.525Z,99763.67
2017-10-25T03:13:58.922Z,99760.53
2017-10-25T03:16:28.464Z,99764.31
2017-10-25T03:18:56.866Z,99766.94
2017-10-25T03:21:25.426Z,99765.44
2017-10-25T03:23:54.208Z,99765.58
2017-10-25T03:26:22.632Z,99770.49
2017-10-25T03:28:51.028Z,99766.53
2017-10-25T03:31:20.234Z,99765.58
2017-10-25T03:33:49.412Z,99763.22
2017-10-25T03:36:17.815Z,99768.55
2017-10-25T03:38:46.989Z,99772.78
2017-10-25T03:41:15.382Z,99775.91
2017-10-25T03:43:44.530Z,99782.20
2017-10-25T03:46:13.321Z,99781.09
2017-10-25T03:48:41.726Z,99773.73
2017-10-25T03:51:10.122Z,99774.69
2017-10-25T03:53:39.561Z,99771.55
2017-10-25T03:56:07.956Z,99772.09
2017-10-25T03:58:36.348Z,99764.96
2017-10-25T04:01:04.777Z,99765.27
2017-10-25T04:03:33.165Z,99766.73
2017-10-25T04:06:01.574Z,99763.19
2017-10-25T04:08:30.343Z,99765.91
2017-10-25T04:10:58.719Z,99769.05
2017-10-25T04:13:27.116Z,99770.83
2017-10-25T04:15:55.576Z,99765.27
2017-10-25T04:18:23.959Z,99766.73
2017-10-25T04:20:52.342Z,99772.30
2017-10-25T04:23:21.126Z,99773.39
2017-10-25T04:25:49.518Z,99779.80
2017-10-25T04:28:17.908Z,99774.34
2017-10-25T04:30:46.326Z,99765.47
2017-10-25T04:33:15.635Z,99769.97
2017-10-25T04:35:44.068Z,99770.11
2017-10-25T04:38:12.475Z,99761.38
2017-10-25T04:40:41.641Z,99764.65
2017-10-25T04:43:10.031Z,99764.65
2017-10-25T04:45:38.781Z,99759.60
2017-10-25T04:48:07.187Z,99757.83
2017-10-25T04:50:35.594Z,99749.78
2017-10-25T04:53:04.022Z,99748.82
2017-10-25T04:55:32.418Z,99751.55
2017-10-25T04:58:00.814Z,99755.47
2017-10-25T05:00:29.241Z,99745.52
2017-10-25T05:02:57.623Z,99748.24
2017-10-25T05:05:26.033Z,99755.06
2017-10-25T05:07:54.479Z,99742.37
2017-10-25T05:10:22.939Z,99745.92
2017-10-25T05:12:52.476Z,99744.83
2017-10-25T05:15:20.887Z,99744.69
2017-10-25T05:17:49.320Z,99740.05
2017-10-25T05:20:17.707Z,99750.97
2017-10-25T05:22:46.127Z,99749.73
2017-10-25T05:25:14.524Z,99749.30
2017-10-25T05:27:42.936Z,99746.05
2017-10-25T05:30:11.728Z,99749.02
2017-10-25T05:32:40.134Z,99753.11
2017-10-25T05:35:08.511Z,99745.88
2017-10-25T05:37:36.931Z,99752.56
2017-10-25T05:40:06.282Z,99745.47
2017-10-25T05:42:34.678Z,99745.06
2017-10-25T05:45:03.107Z,99744.52
2017-10-25T05:47:31.499Z,99745.61
2017-10-25T05:49:59.900Z,99747.78
2017-10-25T05:52:28.319Z,99750.37
2017-10-25T05:54:56.715Z,99752.02
2017-10-25T05:57:25.877Z,99753.83
2017-10-25T05:59:54.301Z,99745.14
2017-10-25T06:02:22.683Z,99749.95
2017-10-25T06:04:51.069Z,99753.54
2017-10-25T06:07:19.500Z,99744.43
2017-10-25T06:09:47.897Z,99748.42
2017-10-25T06:12:17.099Z,99751.33
2017-10-25T06:14:46.627Z,99753.10
2017-10-25T06:17:15.018Z,99747.95
2017-10-25T06:19:43.403Z,99741.44
2017-10-25T06:22:11.813Z,99743.76
2017-10-25T06:24:40.267Z,99735.73
2017-10-25T06:27:08.709Z,99740.24
2017-10-25T06:29:38.228Z,99746.42
2017-10-25T06:32:06.763Z,99742.19
2017-10-25T06:34:35.150Z,99745.05
2017-10-25T06:37:03.583Z,99744.51
2017-10-25T06:39:31.975Z,99735.77
2017-10-25T06:42:00.358Z,99743.72
2017-10-25T06:44:28.784Z,99739.89
2017-10-25T06:46:57.936Z,99728.02
2017-10-25T06:49:26.324Z,99722.28
2017-10-25T06:51:54.754Z,99716.69
2017-10-25T06:54:23.155Z,99713.03
2017-10-25T06:56:51.555Z,99710.16
2017-10-25T06:59:19.987Z,99704.97
2017-10-25T07:01:48.366Z,99715.22
2017-10-25T07:04:16.761Z,99708.66
2017-10-25T07:06:45.177Z,99710.45
2017-10-25T07:09:13.570Z,99715.98
2017-10-25T07:11:41.971Z,99722.92
2017-10-25T07:14:11.155Z,99747.64
2017-10-25T07:16:40.319Z,99747.23
2017-10-25T07:19:08.744Z,99746.81
2017-10-25T07:21:38.282Z,99738.62
2017-10-25T07:24:06.681Z,99738.22
2017-10-25T07:26:35.067Z,99740.40
2017-10-25T07:29:03.809Z,99740.95
2017-10-25T07:31:32.206Z,99742.17
2017-10-25T07:34:00.581Z,99738.48
2017-10-25T07:36:29.018Z,99750.78
2017-10-25T07:38:58.159Z,99757.61
2017-10-25T07:41:26.562Z,99758.97
2017-10-25T07:43:54.983Z,99756.10
2017-10-25T07:46:24.131Z,99755.15
2017-10-25T07:48:52.537Z,99751.87
2017-10-25T07:51:20.961Z,99749.85
2017-10-25T07:53:49.369Z,99751.90
2017-10-25T07:56:17.754Z,99755.05
2017-10-25T07:58:46.490Z,99772.80
2017-10-25T08:01:14.882Z,99771.70
2017-10-25T08:03:43.282Z,99775.53
2017-10-25T08:06:11.700Z,99771.30
2017-10-25T08:08:40.850Z,99765.28
2017-10-25T08:11:09.255Z,99764.19
2017-10-25T08:13:37.994Z,99768.45
2017-10-25T08:16:06.395Z,99769.69
2017-10-25T08:18:34.787Z,99765.86
2017-10-25T08:21:03.198Z,99768.45
2017-10-25T08:23:32.372Z,99776.00
2017-10-25T08:26:00.780Z,99769.71
2017-10-25T08:28:30.323Z,99770.39
2017-10-25T08:30:58.720Z,99760.45
2017-10-25T08:33:27.115Z,99754.30
2017-10-25T08:35:55.854Z,99759.77
2017-10-25T08:38:24.255Z,99754.88
2017-10-25T08:40:52.645Z,99752.69
2017-10-25T08:43:21.081Z,99746.24
2017-10-25T08:45:49.480Z,99748.05
2017-10-25T08:48:17.879Z,99750.89
2017-10-25T08:50:46.649Z,99757.86
2017-10-25T08:53:15.043Z,99752.39
2017-10-25T08:55:43.449Z,99753.62
2017-10-25T08:58:11.868Z,99752.67
2017-10-25T09:00:40.262Z,99746.38
2017-10-25T09:03:09.055Z,99740.92
2017-10-25T09:05:37.487Z,99744.33
2017-10-25T09:08:06.647Z,99737.09
2017-10-25T09:10:35.038Z,99731.09
2017-10-25T09:13:03.470Z,99731.73
2017-10-25T09:15:31.863Z,99720.95
2017-10-25T09:18:00.251Z,99717.40
2017-10-25T09:20:28.957Z,99717.53
2017-10-25T09:22:57.355Z,99727.09
2017-10-25T09:25:25.750Z,99724.26
2017-10-25T09:27:55.328Z,99721.52
2017-10-25T09:30:23.719Z,99714.25
2017-10-25T09:32:52.111Z,99719.30
2017-10-25T09:35:21.296Z,99727.91
2017-10-25T09:37:49.695Z,99738.30
2017-10-25T09:40:18.852Z,99736.39
2017-10-25T09:42:47.271Z,99734.61
2017-10-25T09:45:15.672Z,99719.69
2017-10-25T09:47:44.076Z,99718.49
2017-10-25T09:50:12.514Z,99718.91
2017-10-25T09:52:40.913Z,99729.28
2017-10-25T09:55:09.312Z,99720.81
2017-10-25T09:57:38.076Z,99723.24
2017-10-25T10:00:06.469Z,99727.23
2017-10-25T10:02:34.850Z,99724.64
2017-10-25T10:05:03.267Z,99727.78
2017-10-25T10:07:31.671Z,99725.05
2017-10-25T10:10:00.859Z,99722.05
2017-10-25T10:12:30.043Z,99731.47
2017-10-25T10:14:58.438Z,99728.05
2017-10-25T10:17:27.591Z,99732.70
2017-10-25T10:19:56.355Z,99739.36
2017-10-25T10:22:24.753Z,99746.60
2017-10-25T10:24:53.149Z,99742.64
2017-10-25T10:27:21.575Z,99751.38
2017-10-25T10:29:49.962Z,99748.24
2017-10-25T10:32:18.362Z,99750.70
2017-10-25T10:34:46.781Z,99756.16
2017-10-25T10:37:15.182Z,99755.75
2017-10-25T10:39:43.579Z,99755.20
2017-10-25T10:42:12.004Z,99753.02
2017-10-25T10:44:40.404Z,99754.80
2017-10-25T10:47:09.562Z,99757.39
2017-10-25T10:49:38.079Z,99756.98
2017-10-25T10:52:07.242Z,99758.75
2017-10-25T10:54:35.698Z,99752.64
2017-10-25T10:57:04.484Z,99749.64
2017-10-25T10:59:32.883Z,99746.60
2017-10-25T11:02:01.288Z,99749.74
2017-10-25T11:04:30.029Z,99749.61
2017-10-25T11:06:58.444Z,99749.06
2017-10-25T11:09:26.840Z,99752.34
2017-10-25T11:11:55.298Z,99750.13
2017-10-25T11:14:23.723Z,99746.57
2017-10-25T11:16:52.115Z,99745.20
2017-10-25T11:19:20.534Z,99745.48
2017-10-25T11:21:48.954Z,99752.72
2017-10-25T11:24:18.110Z,99749.17
2017-10-25T11:26:46.524Z,99750.13
2017-10-25T11:29:15.691Z,99752.31
2017-10-25T11:31:44.111Z,99751.90
2017-10-25T11:34:12.615Z,99750.56
2017-10-25T11:36:41.023Z,99753.16
2017-10-25T11:39:09.510Z,99755.75
2017-10-25T11:41:37.915Z,99758.65
2017-10-25T11:44:07.073Z,99760.42
2017-10-25T11:46:35.468Z,99756.59
2017-10-25T11:49:03.886Z,99768.38
2017-10-25T11:51:32.274Z,99757.86
2017-10-25T11:54:00.663Z,99768.78
2017-10-25T11:56:29.094Z,99771.27
2017-10-25T11:58:57.492Z,99766.36
2017-10-25T12:01:26.683Z,99768.41
2017-10-25T12:03:56.216Z,99780.31
2017-10-25T12:06:24.709Z,99778.41
2017-10-25T12:08:53.106Z,99772.80
2017-10-25T12:11:21.541Z,99773.63
2017-10-25T12:13:49.953Z,99774.33
2017-10-25T12:16:18.355Z,99774.77
2017-10-25T12:18:47.140Z,99768.35
2017-10-25T12:21:15.592Z,99763.97
2017-10-25T12:23:43.996Z,99760.58
2017-10-25T12:26:12.696Z,99759.11
2017-10-25T12:28:41.107Z,99755.98
2017-10-25T12:31:10.266Z,99762.67
2017-10-25T12:33:38.681Z,99772.00
2017-10-25T12:36:07.080Z,99769.12
2017-10-25T12:38:35.475Z,99773.50
2017-10-25T12:41:04.672Z,99765.02
2017-10-25T12:43:33.835Z,99762.19
2017-10-25T12:46:02.229Z,99767.78
2017-10-25T12:48:30.654Z,99764.38
2017-10-25T12:50:59.046Z,99756.84
2017-10-25T12:53:27.440Z,99756.41
2017-10-25T12:55:55.877Z,99773.78
2017-10-25T12:58:24.278Z,99776.52
2017-10-25T13:00:52.670Z,99774.02
2017-10-25T13:03:21.095Z,99770.88
2017-10-25T13:05:50.247Z,99778.26
2017-10-25T13:08:18.664Z,99777.85
2017-10-25T13:10:48.132Z,99791.79
2017-10-25T13:13:37.003Z,99787.03
2017-10-25T13:29:24.522Z,99768.31
2017-10-25T13:31:52.922Z,99774.84
2017-10-25T13:34:22.100Z,99770.58
2017-10-25T13:36:50.541Z,99774.80
2017-10-25T13:39:18.944Z,99787.38
2017-10-25T13:41:47.347Z,99787.34
2017-10-25T13:44:16.079Z,99788.13
2017-10-25T13:46:44.486Z,99797.44
2017-10-25T13:51:40.773Z,99801.51
2017-10-25T13:54:09.927Z,99815.29
2017-10-25T13:56:38.323Z,99810.81
2017-10-25T13:59:06.740Z,99820.94
2017-10-25T14:01:35.130Z,99817.47
2017-10-25T14:04:03.527Z,99817.13
2017-10-25T14:06:32.218Z,99815.87
2017-10-25T14:09:00.619Z,99823.70
2017-10-25T14:11:29.024Z,99807.39
2017-10-25T14:13:58.203Z,99819.71
2017-10-25T14:16:26.598Z,99813.80
2017-10-25T14:18:56.378Z,99816.00
2017-10-25T14:21:25.132Z,99821.19
2017-10-25T14:23:53.522Z,99806.42
2017-10-25T14:26:39.891Z,99809.98
2017-10-25T14:29:09.051Z,99824.35
2017-10-25T14:31:37.446Z,99812.66
2017-10-25T14:34:05.869Z,99824.19
2017-10-25T14:38:09.332Z,99836.09
2017-10-25T14:44:29.343Z,99836.05
2017-10-25T14:48:32.743Z,99845.08
2017-10-25T14:52:36.173Z,99852.50
2017-10-25T14:56:39.639Z,99862.14
2017-10-25T15:00:43.067Z,99855.38
2017-10-25T15:04:46.454Z,99863.37
2017-10-25T15:08:49.904Z,99863.20
2017-10-25T15:12:54.081Z,99876.64
2017-10-25T15:16:57.499Z,99883.50
2017-10-25T15:21:00.915Z,99896.26
2017-10-25T15:25:04.345Z,99905.03
2017-10-25T15:29:07.740Z,99908.33
2017-10-25T15:33:12.677Z,99909.67
2017-10-25T15:37:16.085Z,99910.19
2017-10-25T15:52:16.367Z,99911.78
2017-10-25T15:56:19.777Z,99911.44
2017-10-25T16:09:51.571Z,99935.45
2017-10-25T16:13:55.053Z,99938.41
2017-10-25T16:17:59.557Z,99945.21
2017-10-25T16:22:03.082Z,99951.48
2017-10-25T16:26:06.585Z,99951.84
2017-10-25T16:30:10.038Z,99957.77
2017-10-25T16:34:13.505Z,99964.02
2017-10-25T16:38:16.984Z,99969.35
2017-10-25T16:42:20.467Z,99971.56
2017-10-25T16:46:24.055Z,99974.88
2017-10-25T16:50:27.580Z,99983.20
2017-10-25T16:54:31.018Z,99985.42
2017-10-25T16:58:34.832Z,99993.53
2017-10-25T17:02:38.257Z,99993.00
2017-10-25T17:06:41.737Z,99992.89
2017-10-25T17:10:45.212Z,99998.33
2017-10-25T17:14:48.939Z,100007.56
2017-10-25T17:18:53.170Z,100010.19
2017-10-25T17:22:56.792Z,100019.30
2017-10-25T17:27:00.342Z,100018.17
2017-10-25T17:31:04.651Z,100027.33
2017-10-25T17:35:08.099Z,100033.04
2017-10-25T17:39:11.561Z,100035.10
2017-10-25T17:43:15.827Z,100036.27
2017-10-25T17:47:19.413Z,100036.98
2017-10-25T17:51:23.066Z,100040.64
2017-10-25T17:55:27.349Z,100039.80
2017-10-25T17:59:30.799Z,100051.77
2017-10-25T18:03:34.295Z,100041.91
2017-10-25T18:07:37.752Z,100047.00
2017-10-25T18:11:41.229Z,100058.31
2017-10-25T18:15:45.488Z,100054.67
2017-10-25T18:19:49.778Z,100062.88
2017-10-25T18:23:53.254Z,100069.20
2017-10-25T18:27:57.517Z,100077.28
2017-10-25T18:32:01.837Z,100079.70
2017-10-25T18:36:05.359Z,100083.03
2017-10-25T18:40:09.006Z,100097.05
2017-10-25T18:44:12.505Z,100093.71
2017-10-25T18:48:16.352Z,100095.59
2017-10-25T18:52:20.265Z,100080.55
2017-10-25T18:56:23.751Z,100076.80
2017-10-25T19:00:28.200Z,100070.58
2017-10-25T19:04:31.665Z,100077.06
2017-10-25T19:08:36.516Z,100097.09
2017-10-25T19:12:39.971Z,100101.55
2017-10-25T19:16:43.725Z,100107.86
2017-10-25T19:20:47.402Z,100114.36
2017-10-25T19:24:51.786Z,100109.75
2017-10-25T19:28:55.272Z,100118.72
2017-10-25T19:32:58.919Z,100121.88
2017-10-25T19:37:03.147Z,100124.53
2017-10-25T19:41:06.668Z,100141.89
2017-10-25T19:45:10.114Z,100142.48
2017-10-25T19:49:13.558Z,100147.70
2017-10-25T19:53:16.976Z,100152.31
2017-10-25T19:57:21.200Z,100148.81
2017-10-25T20:01:25.385Z,100162.03
2017-10-25T20:05:28.829Z,100164.47
2017-10-25T20:09:32.214Z,100163.47
2017-10-25T20:13:35.712Z,100175.69
2017-10-25T20:17:39.188Z,100167.61
2017-10-25T20:21:42.646Z,100158.95
2017-10-25T20:25:46.081Z,100160.79
2017-10-25T20:29:50.297Z,100156.11
2017-10-25T20:33:54.491Z,100163.63
2017-10-25T20:37:58.017Z,100160.38
2017-10-25T20:42:01.438Z,100180.13
2017-10-25T20:46:05.923Z,100176.60
2017-10-25T20:50:09.351Z,100192.41
2017-10-25T20:54:12.823Z,100174.69
2017-10-25T20:58:16.254Z,100184.14
2017-10-25T21:02:20.015Z,100197.41
2017-10-25T21:06:23.445Z,100204.03
2017-10-25T21:10:26.884Z,100193.89
2017-10-25T21:14:30.303Z,100203.30
2017-10-25T21:18:33.769Z,100199.41
2017-10-25T21:22:37.204Z,100190.83
2017-10-25T21:26:40.676Z,100194.39
2017-10-25T21:30:44.101Z,100191.19
2017-10-25T21:34:47.560Z,100202.54
2017-10-25T21:38:51.761Z,100211.95
2017-10-25T21:42:55.223Z,100204.45
2017-10-25T21:46:58.639Z,100208.29
2017-10-25T21:51:02.108Z,100211.61
2017-10-25T21:55:05.529Z,100211.25
2017-10-25T21:59:09.000Z,100203.37
2017-10-25T22:03:12.422Z,100213.22
2017-10-25T22:07:15.908Z,100213.26
2017-10-25T22:11:19.331Z,100196.45
2017-10-25T22:15:23.552Z,100210.53
2017-10-25T22:19:27.752Z,100203.17
2017-10-25T22:23:31.227Z,100192.34
2017-10-25T22:27:34.653Z,100197.53
2017-10-25T22:31:38.126Z,100197.87
2017-10-25T22:35:41.544Z,100213.64
2017-10-25T22:39:45.108Z,100211.28
2017-10-25T22:43:49.292Z,100212.78
2017-10-25T22:47:52.732Z,100218.59
2017-10-25T22:51:56.155Z,100216.16
2017-10-25T22:56:00.365Z,100215.74
2017-10-25T23:00:03.756Z,100241.09
2017-10-25T23:04:07.199Z,100234.02
2017-10-25T23:08:11.382Z,100236.09
2017-10-25T23:12:14.818Z,100232.00
2017-10-25T23:16:18.980Z,100230.39
2017-10-25T23:20:22.692Z,100228.27
2017-10-25T23:24:26.104Z,100225.27
2017-10-25T23:28:29.820Z,100231.44
2017-10-25T23:32:33.231Z,100230.34
2017-10-25T23:36:37.020Z,100239.71
2017-10-25T23:40:40.412Z,100231.11
2017-10-25T23:44:44.953Z,100239.64
2017-10-25T23:48:48.370Z,100240.47
2017-10-25T23:52:51.832Z,100236.95
2017-10-25T23:56:55.323Z,100236.54
